sensor_id;sensor_type;location;lat;lon;timestamp;P1;durP1;ratioP1;P2;durP2;ratioP2
11453;SDS011;5783;55.174;61.310;2023-05-10T00:01:30;66.10;;;53.13;;
11453;SDS011;5783;55.174;61.310;2023-05-10T00:03:59;66.43;;;52.80;;
11453;SDS011;5783;55.174;61.310;2023-05-10T00:06:29;63.70;;;51.73;;
11453;SDS011;5783;55.174;61.310;2023-05-10T00:08:58;66.80;;;53.07;;
11453;SDS011;5783;55.174;61.310;2023-05-10T00:11:27;67.07;;;52.13;;
11453;SDS011;5783;55.174;61.310;2023-05-10T00:13:56;62.77;;;52.23;;
11453;SDS011;5783;55.174;61.310;2023-05-10T00:16:25;61.93;;;50.67;;
11453;SDS011;5783;55.174;61.310;2023-05-10T00:18:54;63.50;;;51.17;;
11453;SDS011;5783;55.174;61.310;2023-05-10T00:21:23;59.40;;;49.13;;
11453;SDS011;5783;55.174;61.310;2023-05-10T00:23:54;64.23;;;49.63;;
11453;SDS011;5783;55.174;61.310;2023-05-10T00:26:23;55.33;;;47.53;;
11453;SDS011;5783;55.174;61.310;2023-05-10T00:28:52;60.00;;;49.33;;
11453;SDS011;5783;55.174;61.310;2023-05-10T00:31:22;59.73;;;48.20;;
11453;SDS011;5783;55.174;61.310;2023-05-10T00:33:52;58.67;;;48.27;;
11453;SDS011;5783;55.174;61.310;2023-05-10T00:36:21;57.83;;;46.33;;
11453;SDS011;5783;55.174;61.310;2023-05-10T00:38:50;57.53;;;45.73;;
11453;SDS011;5783;55.174;61.310;2023-05-10T00:41:19;59.23;;;46.73;;
11453;SDS011;5783;55.174;61.310;2023-05-10T00:43:48;60.17;;;47.00;;
11453;SDS011;5783;55.174;61.310;2023-05-10T00:46:17;58.37;;;46.70;;
11453;SDS011;5783;55.174;61.310;2023-05-10T00:48:47;57.20;;;45.10;;
11453;SDS011;5783;55.174;61.310;2023-05-10T00:51:17;53.80;;;43.60;;
11453;SDS011;5783;55.174;61.310;2023-05-10T00:53:46;56.17;;;45.53;;
11453;SDS011;5783;55.174;61.310;2023-05-10T00:56:17;52.80;;;42.63;;
11453;SDS011;5783;55.174;61.310;2023-05-10T00:58:48;59.23;;;44.10;;
11453;SDS011;5783;55.174;61.310;2023-05-10T01:01:17;49.57;;;40.37;;
11453;SDS011;5783;55.174;61.310;2023-05-10T01:03:48;52.33;;;42.13;;
11453;SDS011;5783;55.174;61.310;2023-05-10T01:06:18;55.27;;;43.30;;
11453;SDS011;5783;55.174;61.310;2023-05-10T01:08:47;53.23;;;41.60;;
11453;SDS011;5783;55.174;61.310;2023-05-10T01:11:16;48.80;;;39.67;;
11453;SDS011;5783;55.174;61.310;2023-05-10T01:13:46;48.10;;;40.00;;
11453;SDS011;5783;55.174;61.310;2023-05-10T01:16:17;48.67;;;39.17;;
11453;SDS011;5783;55.174;61.310;2023-05-10T01:18:46;49.63;;;39.57;;
11453;SDS011;5783;55.174;61.310;2023-05-10T01:33:52;45.37;;;35.20;;
11453;SDS011;5783;55.174;61.310;2023-05-10T01:42:42;40.63;;;34.13;;
11453;SDS011;5783;55.174;61.310;2023-05-10T01:48:39;41.47;;;32.27;;
11453;SDS011;5783;55.174;61.310;2023-05-10T01:51:11;40.43;;;31.90;;
11453;SDS011;5783;55.174;61.310;2023-05-10T01:54:02;45.03;;;32.83;;
11453;SDS011;5783;55.174;61.310;2023-05-10T01:56:32;41.23;;;30.87;;
11453;SDS011;5783;55.174;61.310;2023-05-10T01:59:04;39.37;;;31.60;;
11453;SDS011;5783;55.174;61.310;2023-05-10T02:01:35;40.87;;;31.10;;
11453;SDS011;5783;55.174;61.310;2023-05-10T02:04:07;39.83;;;30.53;;
11453;SDS011;5783;55.174;61.310;2023-05-10T02:06:37;41.93;;;31.60;;
11453;SDS011;5783;55.174;61.310;2023-05-10T02:09:07;38.20;;;30.43;;
11453;SDS011;5783;55.174;61.310;2023-05-10T02:11:39;36.60;;;30.17;;
11453;SDS011;5783;55.174;61.310;2023-05-10T02:14:11;42.60;;;30.27;;
11453;SDS011;5783;55.174;61.310;2023-05-10T02:16:40;39.47;;;30.57;;
11453;SDS011;5783;55.174;61.310;2023-05-10T02:19:11;39.67;;;30.33;;
11453;SDS011;5783;55.174;61.310;2023-05-10T02:21:43;38.43;;;29.40;;
11453;SDS011;5783;55.174;61.310;2023-05-10T02:24:13;38.63;;;30.07;;
11453;SDS011;5783;55.174;61.310;2023-05-10T02:26:44;39.73;;;29.57;;
11453;SDS011;5783;55.174;61.310;2023-05-10T02:29:15;38.23;;;29.73;;
11453;SDS011;5783;55.174;61.310;2023-05-10T02:31:48;40.70;;;29.87;;
11453;SDS011;5783;55.174;61.310;2023-05-10T02:36:51;39.00;;;29.77;;
11453;SDS011;5783;55.174;61.310;2023-05-10T02:39:22;37.27;;;29.43;;
11453;SDS011;5783;55.174;61.310;2023-05-10T02:41:54;42.07;;;29.53;;
11453;SDS011;5783;55.174;61.310;2023-05-10T02:44:24;37.93;;;28.80;;
11453;SDS011;5783;55.174;61.310;2023-05-10T02:46:57;36.73;;;28.30;;
11453;SDS011;5783;55.174;61.310;2023-05-10T02:49:26;38.77;;;29.33;;
11453;SDS011;5783;55.174;61.310;2023-05-10T02:51:56;39.57;;;28.03;;
11453;SDS011;5783;55.174;61.310;2023-05-10T02:54:48;36.63;;;27.70;;
11453;SDS011;5783;55.174;61.310;2023-05-10T02:57:21;36.90;;;27.63;;
11453;SDS011;5783;55.174;61.310;2023-05-10T02:59:51;34.57;;;27.00;;
11453;SDS011;5783;55.174;61.310;2023-05-10T03:02:20;36.37;;;27.30;;
11453;SDS011;5783;55.174;61.310;2023-05-10T03:04:49;36.47;;;26.77;;
11453;SDS011;5783;55.174;61.310;2023-05-10T03:07:18;34.83;;;26.20;;
11453;SDS011;5783;55.174;61.310;2023-05-10T03:09:48;37.23;;;26.80;;
11453;SDS011;5783;55.174;61.310;2023-05-10T03:20:49;34.87;;;25.47;;
11453;SDS011;5783;55.174;61.310;2023-05-10T03:23:21;35.07;;;25.07;;
11453;SDS011;5783;55.174;61.310;2023-05-10T03:26:12;32.07;;;24.20;;
11453;SDS011;5783;55.174;61.310;2023-05-10T03:28:43;33.80;;;24.10;;
11453;SDS011;5783;55.174;61.310;2023-05-10T03:31:14;32.37;;;23.67;;
11453;SDS011;5783;55.174;61.310;2023-05-10T03:36:32;35.47;;;23.30;;
11453;SDS011;5783;55.174;61.310;2023-05-10T03:39:01;35.20;;;23.33;;
11453;SDS011;5783;55.174;61.310;2023-05-10T03:41:30;31.00;;;22.60;;
11453;SDS011;5783;55.174;61.310;2023-05-10T03:44:00;29.30;;;22.03;;
11453;SDS011;5783;55.174;61.310;2023-05-10T03:46:29;36.43;;;22.27;;
11453;SDS011;5783;55.174;61.310;2023-05-10T03:48:58;30.83;;;22.17;;
11453;SDS011;5783;55.174;61.310;2023-05-10T03:51:27;30.77;;;21.80;;
11453;SDS011;5783;55.174;61.310;2023-05-10T03:53:57;28.87;;;21.00;;
11453;SDS011;5783;55.174;61.310;2023-05-10T03:56:26;28.93;;;20.57;;
11453;SDS011;5783;55.174;61.310;2023-05-10T03:58:56;27.90;;;20.83;;
11453;SDS011;5783;55.174;61.310;2023-05-10T04:01:25;27.70;;;20.33;;
11453;SDS011;5783;55.174;61.310;2023-05-10T04:03:54;28.90;;;20.90;;
11453;SDS011;5783;55.174;61.310;2023-05-10T04:06:23;26.67;;;19.70;;
11453;SDS011;5783;55.174;61.310;2023-05-10T04:08:52;28.27;;;19.50;;
11453;SDS011;5783;55.174;61.310;2023-05-10T04:11:21;24.60;;;19.23;;
11453;SDS011;5783;55.174;61.310;2023-05-10T04:13:50;24.43;;;19.30;;
11453;SDS011;5783;55.174;61.310;2023-05-10T04:16:19;26.30;;;19.47;;
11453;SDS011;5783;55.174;61.310;2023-05-10T04:18:48;25.30;;;18.40;;
11453;SDS011;5783;55.174;61.310;2023-05-10T04:21:17;24.97;;;17.97;;
11453;SDS011;5783;55.174;61.310;2023-05-10T04:23:47;25.10;;;17.70;;
11453;SDS011;5783;55.174;61.310;2023-05-10T04:26:16;24.40;;;18.30;;
11453;SDS011;5783;55.174;61.310;2023-05-10T04:28:46;24.30;;;18.07;;
11453;SDS011;5783;55.174;61.310;2023-05-10T04:31:15;26.43;;;18.37;;
11453;SDS011;5783;55.174;61.310;2023-05-10T04:33:44;26.63;;;18.17;;
11453;SDS011;5783;55.174;61.310;2023-05-10T04:36:13;28.43;;;18.63;;
11453;SDS011;5783;55.174;61.310;2023-05-10T04:38:42;22.33;;;17.33;;
11453;SDS011;5783;55.174;61.310;2023-05-10T04:41:11;25.97;;;17.07;;
11453;SDS011;5783;55.174;61.310;2023-05-10T04:43:40;23.17;;;16.90;;
11453;SDS011;5783;55.174;61.310;2023-05-10T04:46:09;26.23;;;17.07;;
11453;SDS011;5783;55.174;61.310;2023-05-10T04:48:38;27.10;;;16.47;;
11453;SDS011;5783;55.174;61.310;2023-05-10T04:51:08;26.47;;;15.53;;
11453;SDS011;5783;55.174;61.310;2023-05-10T04:53:37;22.57;;;14.90;;
11453;SDS011;5783;55.174;61.310;2023-05-10T04:56:06;20.57;;;14.30;;
11453;SDS011;5783;55.174;61.310;2023-05-10T04:58:35;24.70;;;13.80;;
11453;SDS011;5783;55.174;61.310;2023-05-10T05:01:05;21.10;;;13.67;;
11453;SDS011;5783;55.174;61.310;2023-05-10T05:03:35;21.07;;;12.73;;
11453;SDS011;5783;55.174;61.310;2023-05-10T05:06:05;18.97;;;12.47;;
11453;SDS011;5783;55.174;61.310;2023-05-10T05:08:34;19.57;;;11.67;;
11453;SDS011;5783;55.174;61.310;2023-05-10T05:11:03;15.13;;;10.17;;
11453;SDS011;5783;55.174;61.310;2023-05-10T05:13:32;17.40;;;10.83;;
11453;SDS011;5783;55.174;61.310;2023-05-10T05:16:02;18.10;;;12.00;;
11453;SDS011;5783;55.174;61.310;2023-05-10T05:18:31;15.37;;;10.67;;
11453;SDS011;5783;55.174;61.310;2023-05-10T05:21:00;19.03;;;12.43;;
11453;SDS011;5783;55.174;61.310;2023-05-10T05:23:29;21.37;;;13.33;;
11453;SDS011;5783;55.174;61.310;2023-05-10T05:25:58;22.47;;;13.07;;
11453;SDS011;5783;55.174;61.310;2023-05-10T05:28:27;18.50;;;12.40;;
11453;SDS011;5783;55.174;61.310;2023-05-10T05:30:58;18.80;;;11.20;;
11453;SDS011;5783;55.174;61.310;2023-05-10T05:33:27;18.87;;;13.63;;
11453;SDS011;5783;55.174;61.310;2023-05-10T05:35:56;26.97;;;15.00;;
11453;SDS011;5783;55.174;61.310;2023-05-10T05:38:27;26.97;;;17.90;;
11453;SDS011;5783;55.174;61.310;2023-05-10T05:40:56;23.23;;;16.77;;
11453;SDS011;5783;55.174;61.310;2023-05-10T05:43:25;20.63;;;14.90;;
11453;SDS011;5783;55.174;61.310;2023-05-10T05:45:54;22.10;;;15.73;;
11453;SDS011;5783;55.174;61.310;2023-05-10T05:48:43;22.17;;;16.00;;
11453;SDS011;5783;55.174;61.310;2023-05-10T05:51:12;25.53;;;18.07;;
11453;SDS011;5783;55.174;61.310;2023-05-10T05:53:41;25.20;;;18.10;;
11453;SDS011;5783;55.174;61.310;2023-05-10T05:56:11;26.60;;;20.80;;
11453;SDS011;5783;55.174;61.310;2023-05-10T05:58:40;23.23;;;15.47;;
11453;SDS011;5783;55.174;61.310;2023-05-10T06:01:10;23.03;;;15.07;;
11453;SDS011;5783;55.174;61.310;2023-05-10T06:03:39;24.97;;;15.70;;
11453;SDS011;5783;55.174;61.310;2023-05-10T06:06:09;18.27;;;12.10;;
11453;SDS011;5783;55.174;61.310;2023-05-10T06:08:38;17.23;;;11.33;;
11453;SDS011;5783;55.174;61.310;2023-05-10T06:11:07;19.27;;;11.43;;
11453;SDS011;5783;55.174;61.310;2023-05-10T06:13:36;20.20;;;13.07;;
11453;SDS011;5783;55.174;61.310;2023-05-10T06:16:05;16.77;;;11.70;;
11453;SDS011;5783;55.174;61.310;2023-05-10T06:18:34;20.47;;;13.63;;
11453;SDS011;5783;55.174;61.310;2023-05-10T06:21:03;30.37;;;20.27;;
11453;SDS011;5783;55.174;61.310;2023-05-10T06:23:33;28.57;;;20.47;;
11453;SDS011;5783;55.174;61.310;2023-05-10T06:26:02;26.37;;;17.67;;
11453;SDS011;5783;55.174;61.310;2023-05-10T06:28:32;22.60;;;17.40;;
11453;SDS011;5783;55.174;61.310;2023-05-10T06:31:01;26.77;;;19.30;;
11453;SDS011;5783;55.174;61.310;2023-05-10T06:33:30;29.07;;;21.00;;
11453;SDS011;5783;55.174;61.310;2023-05-10T06:36:01;24.57;;;17.60;;
11453;SDS011;5783;55.174;61.310;2023-05-10T06:38:32;24.87;;;17.77;;
11453;SDS011;5783;55.174;61.310;2023-05-10T06:41:01;22.57;;;16.47;;
11453;SDS011;5783;55.174;61.310;2023-05-10T06:43:30;27.73;;;18.30;;
11453;SDS011;5783;55.174;61.310;2023-05-10T06:45:59;23.47;;;16.70;;
11453;SDS011;5783;55.174;61.310;2023-05-10T06:48:28;22.37;;;15.47;;
11453;SDS011;5783;55.174;61.310;2023-05-10T06:50:58;30.37;;;22.23;;
11453;SDS011;5783;55.174;61.310;2023-05-10T06:53:27;26.00;;;18.00;;
11453;SDS011;5783;55.174;61.310;2023-05-10T06:55:56;28.80;;;19.97;;
11453;SDS011;5783;55.174;61.310;2023-05-10T06:58:25;28.97;;;21.53;;
11453;SDS011;5783;55.174;61.310;2023-05-10T07:00:54;28.23;;;18.70;;
11453;SDS011;5783;55.174;61.310;2023-05-10T07:03:26;26.87;;;18.93;;
11453;SDS011;5783;55.174;61.310;2023-05-10T07:05:59;20.87;;;15.50;;
11453;SDS011;5783;55.174;61.310;2023-05-10T07:08:46;22.03;;;14.70;;
11453;SDS011;5783;55.174;61.310;2023-05-10T07:11:15;18.10;;;12.53;;
11453;SDS011;5783;55.174;61.310;2023-05-10T07:13:44;16.13;;;11.80;;
11453;SDS011;5783;55.174;61.310;2023-05-10T07:16:13;14.97;;;10.33;;
11453;SDS011;5783;55.174;61.310;2023-05-10T07:18:42;14.00;;;9.60;;
11453;SDS011;5783;55.174;61.310;2023-05-10T07:21:11;13.13;;;10.43;;
11453;SDS011;5783;55.174;61.310;2023-05-10T07:23:40;13.63;;;8.53;;
11453;SDS011;5783;55.174;61.310;2023-05-10T07:26:09;10.93;;;7.90;;
11453;SDS011;5783;55.174;61.310;2023-05-10T07:28:38;10.30;;;7.37;;
11453;SDS011;5783;55.174;61.310;2023-05-10T07:31:07;11.93;;;7.50;;
11453;SDS011;5783;55.174;61.310;2023-05-10T07:33:37;10.10;;;7.20;;
11453;SDS011;5783;55.174;61.310;2023-05-10T07:36:06;13.77;;;7.13;;
11453;SDS011;5783;55.174;61.310;2023-05-10T07:38:35;11.50;;;6.70;;
11453;SDS011;5783;55.174;61.310;2023-05-10T07:41:04;8.47;;;5.90;;
11453;SDS011;5783;55.174;61.310;2023-05-10T07:43:33;9.00;;;6.07;;
11453;SDS011;5783;55.174;61.310;2023-05-10T07:46:02;8.73;;;5.77;;
11453;SDS011;5783;55.174;61.310;2023-05-10T07:48:31;8.27;;;5.50;;
11453;SDS011;5783;55.174;61.310;2023-05-10T07:51:00;10.70;;;6.10;;
11453;SDS011;5783;55.174;61.310;2023-05-10T07:53:30;9.63;;;6.33;;
11453;SDS011;5783;55.174;61.310;2023-05-10T07:55:59;10.33;;;5.63;;
11453;SDS011;5783;55.174;61.310;2023-05-10T07:58:29;9.60;;;5.70;;
11453;SDS011;5783;55.174;61.310;2023-05-10T08:00:58;8.33;;;5.63;;
11453;SDS011;5783;55.174;61.310;2023-05-10T08:03:27;7.73;;;5.80;;
11453;SDS011;5783;55.174;61.310;2023-05-10T08:05:56;10.10;;;6.03;;
11453;SDS011;5783;55.174;61.310;2023-05-10T08:08:25;8.03;;;5.40;;
11453;SDS011;5783;55.174;61.310;2023-05-10T08:10:54;9.30;;;5.60;;
11453;SDS011;5783;55.174;61.310;2023-05-10T08:13:23;7.80;;;5.67;;
11453;SDS011;5783;55.174;61.310;2023-05-10T08:15:53;10.33;;;5.83;;
11453;SDS011;5783;55.174;61.310;2023-05-10T08:18:22;8.47;;;5.80;;
11453;SDS011;5783;55.174;61.310;2023-05-10T08:20:51;6.93;;;5.60;;
11453;SDS011;5783;55.174;61.310;2023-05-10T08:23:20;9.70;;;6.07;;
11453;SDS011;5783;55.174;61.310;2023-05-10T08:25:49;7.50;;;5.57;;
11453;SDS011;5783;55.174;61.310;2023-05-10T08:28:18;7.83;;;6.07;;
11453;SDS011;5783;55.174;61.310;2023-05-10T08:30:47;7.23;;;5.70;;
11453;SDS011;5783;55.174;61.310;2023-05-10T08:33:18;9.83;;;6.00;;
11453;SDS011;5783;55.174;61.310;2023-05-10T08:35:47;9.10;;;5.53;;
11453;SDS011;5783;55.174;61.310;2023-05-10T08:38:17;9.33;;;5.37;;
11453;SDS011;5783;55.174;61.310;2023-05-10T08:40:46;11.50;;;5.67;;
11453;SDS011;5783;55.174;61.310;2023-05-10T08:43:19;9.50;;;5.50;;
11453;SDS011;5783;55.174;61.310;2023-05-10T08:45:48;8.10;;;5.60;;
11453;SDS011;5783;55.174;61.310;2023-05-10T08:48:18;9.17;;;5.60;;
11453;SDS011;5783;55.174;61.310;2023-05-10T08:50:49;9.33;;;5.63;;
11453;SDS011;5783;55.174;61.310;2023-05-10T08:53:21;10.40;;;5.93;;
11453;SDS011;5783;55.174;61.310;2023-05-10T08:55:53;8.47;;;6.20;;
11453;SDS011;5783;55.174;61.310;2023-05-10T08:58:22;8.50;;;6.17;;
11453;SDS011;5783;55.174;61.310;2023-05-10T09:00:51;7.97;;;6.03;;
11453;SDS011;5783;55.174;61.310;2023-05-10T09:03:20;10.30;;;5.87;;
11453;SDS011;5783;55.174;61.310;2023-05-10T09:05:49;8.13;;;6.10;;
11453;SDS011;5783;55.174;61.310;2023-05-10T09:08:18;9.70;;;5.90;;
11453;SDS011;5783;55.174;61.310;2023-05-10T09:10:50;8.50;;;6.40;;
11453;SDS011;5783;55.174;61.310;2023-05-10T09:13:21;10.63;;;6.30;;
11453;SDS011;5783;55.174;61.310;2023-05-10T09:15:51;11.00;;;6.53;;
11453;SDS011;5783;55.174;61.310;2023-05-10T09:18:21;9.07;;;5.80;;
11453;SDS011;5783;55.174;61.310;2023-05-10T09:20:51;9.40;;;5.83;;
11453;SDS011;5783;55.174;61.310;2023-05-10T09:23:20;7.43;;;5.40;;
11453;SDS011;5783;55.174;61.310;2023-05-10T09:26:01;8.23;;;5.80;;
11453;SDS011;5783;55.174;61.310;2023-05-10T09:28:23;10.13;;;5.93;;
11453;SDS011;5783;55.174;61.310;2023-05-10T09:30:53;8.50;;;6.13;;
11453;SDS011;5783;55.174;61.310;2023-05-10T09:33:22;12.83;;;6.47;;
11453;SDS011;5783;55.174;61.310;2023-05-10T09:35:52;8.70;;;5.77;;
11453;SDS011;5783;55.174;61.310;2023-05-10T09:38:21;6.73;;;5.40;;
11453;SDS011;5783;55.174;61.310;2023-05-10T09:40:51;8.10;;;5.60;;
11453;SDS011;5783;55.174;61.310;2023-05-10T09:43:21;7.77;;;5.80;;
11453;SDS011;5783;55.174;61.310;2023-05-10T09:45:50;8.47;;;5.90;;
11453;SDS011;5783;55.174;61.310;2023-05-10T09:48:21;9.43;;;6.60;;
11453;SDS011;5783;55.174;61.310;2023-05-10T09:50:56;7.70;;;5.57;;
11453;SDS011;5783;55.174;61.310;2023-05-10T09:53:41;9.23;;;6.03;;
11453;SDS011;5783;55.174;61.310;2023-05-10T09:56:10;7.47;;;5.83;;
11453;SDS011;5783;55.174;61.310;2023-05-10T09:58:40;9.60;;;5.87;;
11453;SDS011;5783;55.174;61.310;2023-05-10T10:03:58;8.67;;;6.43;;
11453;SDS011;5783;55.174;61.310;2023-05-10T10:06:27;9.40;;;6.30;;
11453;SDS011;5783;55.174;61.310;2023-05-10T10:08:56;7.83;;;6.10;;
11453;SDS011;5783;55.174;61.310;2023-05-10T10:11:25;7.93;;;6.10;;
11453;SDS011;5783;55.174;61.310;2023-05-10T10:13:54;11.87;;;6.90;;
11453;SDS011;5783;55.174;61.310;2023-05-10T10:16:24;10.20;;;6.80;;
11453;SDS011;5783;55.174;61.310;2023-05-10T10:18:55;10.87;;;6.83;;
11453;SDS011;5783;55.174;61.310;2023-05-10T10:24:15;10.93;;;6.90;;
11453;SDS011;5783;55.174;61.310;2023-05-10T10:26:44;11.43;;;6.67;;
11453;SDS011;5783;55.174;61.310;2023-05-10T10:35:32;10.70;;;7.17;;
11453;SDS011;5783;55.174;61.310;2023-05-10T10:38:02;10.93;;;6.77;;
11453;SDS011;5783;55.174;61.310;2023-05-10T10:40:32;10.33;;;7.20;;
11453;SDS011;5783;55.174;61.310;2023-05-10T10:55:17;8.20;;;6.67;;
11453;SDS011;5783;55.174;61.310;2023-05-10T10:57:50;9.70;;;6.83;;
11453;SDS011;5783;55.174;61.310;2023-05-10T11:00:39;10.00;;;7.30;;
11453;SDS011;5783;55.174;61.310;2023-05-10T11:03:10;8.93;;;7.00;;
11453;SDS011;5783;55.174;61.310;2023-05-10T11:11:04;10.07;;;6.70;;
11453;SDS011;5783;55.174;61.310;2023-05-10T11:16:25;10.73;;;6.80;;
11453;SDS011;5783;55.174;61.310;2023-05-10T11:24:34;10.73;;;6.73;;
11453;SDS011;5783;55.174;61.310;2023-05-10T11:27:03;9.37;;;7.20;;
11453;SDS011;5783;55.174;61.310;2023-05-10T11:29:33;9.23;;;6.77;;
11453;SDS011;5783;55.174;61.310;2023-05-10T11:32:02;9.40;;;7.07;;
11453;SDS011;5783;55.174;61.310;2023-05-10T11:34:33;8.63;;;6.77;;
11453;SDS011;5783;55.174;61.310;2023-05-10T11:37:02;9.27;;;7.47;;
11453;SDS011;5783;55.174;61.310;2023-05-10T11:39:32;8.70;;;7.10;;
11453;SDS011;5783;55.174;61.310;2023-05-10T11:42:01;9.33;;;6.87;;
11453;SDS011;5783;55.174;61.310;2023-05-10T11:44:30;10.33;;;6.87;;
11453;SDS011;5783;55.174;61.310;2023-05-10T11:47:00;11.30;;;7.73;;
11453;SDS011;5783;55.174;61.310;2023-05-10T11:49:29;11.00;;;6.70;;
11453;SDS011;5783;55.174;61.310;2023-05-10T11:57:36;9.07;;;6.83;;
11453;SDS011;5783;55.174;61.310;2023-05-10T12:00:07;8.80;;;6.97;;
11453;SDS011;5783;55.174;61.310;2023-05-10T12:02:36;13.60;;;6.90;;
11453;SDS011;5783;55.174;61.310;2023-05-10T12:05:06;11.07;;;6.93;;
11453;SDS011;5783;55.174;61.310;2023-05-10T12:07:35;9.87;;;6.70;;
11453;SDS011;5783;55.174;61.310;2023-05-10T12:10:05;9.13;;;6.43;;
11453;SDS011;5783;55.174;61.310;2023-05-10T12:15:27;8.90;;;6.63;;
11453;SDS011;5783;55.174;61.310;2023-05-10T12:17:56;11.90;;;6.93;;
11453;SDS011;5783;55.174;61.310;2023-05-10T12:20:27;13.33;;;6.87;;
11453;SDS011;5783;55.174;61.310;2023-05-10T12:22:57;8.83;;;6.57;;
11453;SDS011;5783;55.174;61.310;2023-05-10T12:28:19;10.40;;;6.40;;
11453;SDS011;5783;55.174;61.310;2023-05-10T12:30:48;11.27;;;6.57;;
11453;SDS011;5783;55.174;61.310;2023-05-10T12:33:19;9.63;;;6.40;;
11453;SDS011;5783;55.174;61.310;2023-05-10T12:41:46;10.20;;;6.40;;
11453;SDS011;5783;55.174;61.310;2023-05-10T12:44:15;9.10;;;6.30;;
11453;SDS011;5783;55.174;61.310;2023-05-10T12:46:44;8.60;;;6.70;;
11453;SDS011;5783;55.174;61.310;2023-05-10T12:49:13;10.10;;;6.63;;
11453;SDS011;5783;55.174;61.310;2023-05-10T12:51:44;10.47;;;7.03;;
11453;SDS011;5783;55.174;61.310;2023-05-10T12:54:13;8.40;;;6.73;;
11453;SDS011;5783;55.174;61.310;2023-05-10T12:56:42;9.17;;;6.20;;
11453;SDS011;5783;55.174;61.310;2023-05-10T12:59:11;9.60;;;6.77;;
11453;SDS011;5783;55.174;61.310;2023-05-10T13:01:41;8.97;;;6.73;;
11453;SDS011;5783;55.174;61.310;2023-05-10T13:04:12;7.93;;;6.13;;
11453;SDS011;5783;55.174;61.310;2023-05-10T13:06:41;8.67;;;6.90;;
11453;SDS011;5783;55.174;61.310;2023-05-10T13:09:10;9.60;;;7.00;;
11453;SDS011;5783;55.174;61.310;2023-05-10T13:11:39;9.20;;;6.57;;
11453;SDS011;5783;55.174;61.310;2023-05-10T13:14:08;8.83;;;6.53;;
11453;SDS011;5783;55.174;61.310;2023-05-10T13:16:39;7.67;;;6.73;;
11453;SDS011;5783;55.174;61.310;2023-05-10T13:19:08;8.67;;;6.90;;
11453;SDS011;5783;55.174;61.310;2023-05-10T13:21:37;8.63;;;6.80;;
11453;SDS011;5783;55.174;61.310;2023-05-10T13:24:08;13.97;;;7.77;;
11453;SDS011;5783;55.174;61.310;2023-05-10T13:26:39;11.37;;;6.80;;
11453;SDS011;5783;55.174;61.310;2023-05-10T13:29:08;12.80;;;6.97;;
11453;SDS011;5783;55.174;61.310;2023-05-10T13:31:37;9.43;;;6.53;;
11453;SDS011;5783;55.174;61.310;2023-05-10T13:34:12;10.83;;;7.23;;
11453;SDS011;5783;55.174;61.310;2023-05-10T13:36:41;7.90;;;6.13;;
11453;SDS011;5783;55.174;61.310;2023-05-10T13:39:10;9.67;;;6.53;;
11453;SDS011;5783;55.174;61.310;2023-05-10T13:41:39;11.47;;;6.60;;
11453;SDS011;5783;55.174;61.310;2023-05-10T13:44:08;11.07;;;6.23;;
11453;SDS011;5783;55.174;61.310;2023-05-10T13:46:40;12.37;;;6.60;;
11453;SDS011;5783;55.174;61.310;2023-05-10T13:49:10;10.67;;;6.67;;
11453;SDS011;5783;55.174;61.310;2023-05-10T13:51:39;9.03;;;6.30;;
11453;SDS011;5783;55.174;61.310;2023-05-10T13:54:08;9.37;;;6.03;;
11453;SDS011;5783;55.174;61.310;2023-05-10T13:56:37;8.70;;;6.10;;
11453;SDS011;5783;55.174;61.310;2023-05-10T13:59:07;9.67;;;6.10;;
11453;SDS011;5783;55.174;61.310;2023-05-10T14:01:36;8.97;;;6.20;;
11453;SDS011;5783;55.174;61.310;2023-05-10T14:04:05;9.33;;;6.50;;
11453;SDS011;5783;55.174;61.310;2023-05-10T14:06:36;12.10;;;6.30;;
11453;SDS011;5783;55.174;61.310;2023-05-10T14:09:05;11.90;;;6.97;;
11453;SDS011;5783;55.174;61.310;2023-05-10T14:11:34;10.17;;;6.47;;
11453;SDS011;5783;55.174;61.310;2023-05-10T14:14:05;8.63;;;6.20;;
11453;SDS011;5783;55.174;61.310;2023-05-10T14:16:34;10.57;;;6.13;;
11453;SDS011;5783;55.174;61.310;2023-05-10T14:19:03;10.83;;;6.23;;
11453;SDS011;5783;55.174;61.310;2023-05-10T14:21:32;10.33;;;5.93;;
11453;SDS011;5783;55.174;61.310;2023-05-10T14:24:01;11.23;;;6.10;;
11453;SDS011;5783;55.174;61.310;2023-05-10T14:26:32;12.70;;;6.50;;
11453;SDS011;5783;55.174;61.310;2023-05-10T14:29:01;12.10;;;6.60;;
11453;SDS011;5783;55.174;61.310;2023-05-10T14:31:30;8.50;;;6.30;;
11453;SDS011;5783;55.174;61.310;2023-05-10T14:33:59;10.07;;;6.30;;
11453;SDS011;5783;55.174;61.310;2023-05-10T14:36:28;8.40;;;6.10;;
11453;SDS011;5783;55.174;61.310;2023-05-10T14:38:58;8.37;;;6.50;;
11453;SDS011;5783;55.174;61.310;2023-05-10T14:41:27;10.80;;;7.20;;
11453;SDS011;5783;55.174;61.310;2023-05-10T14:43:56;8.63;;;6.70;;
11453;SDS011;5783;55.174;61.310;2023-05-10T14:46:26;11.53;;;6.73;;
11453;SDS011;5783;55.174;61.310;2023-05-10T14:48:55;13.37;;;7.23;;
11453;SDS011;5783;55.174;61.310;2023-05-10T14:51:24;8.93;;;6.40;;
11453;SDS011;5783;55.174;61.310;2023-05-10T14:56:42;9.50;;;7.30;;
11453;SDS011;5783;55.174;61.310;2023-05-10T14:59:11;10.93;;;7.33;;
11453;SDS011;5783;55.174;61.310;2023-05-10T15:01:40;7.63;;;5.83;;
11453;SDS011;5783;55.174;61.310;2023-05-10T15:04:10;9.30;;;5.90;;
11453;SDS011;5783;55.174;61.310;2023-05-10T15:06:39;8.67;;;6.50;;
11453;SDS011;5783;55.174;61.310;2023-05-10T15:09:08;7.83;;;5.80;;
11453;SDS011;5783;55.174;61.310;2023-05-10T15:11:37;7.70;;;5.90;;
11453;SDS011;5783;55.174;61.310;2023-05-10T15:14:06;9.03;;;5.87;;
11453;SDS011;5783;55.174;61.310;2023-05-10T15:16:35;7.97;;;6.07;;
11453;SDS011;5783;55.174;61.310;2023-05-10T15:19:04;7.17;;;5.80;;
11453;SDS011;5783;55.174;61.310;2023-05-10T15:21:33;9.07;;;5.87;;
11453;SDS011;5783;55.174;61.310;2023-05-10T15:24:05;7.17;;;5.80;;
11453;SDS011;5783;55.174;61.310;2023-05-10T15:26:34;7.23;;;5.43;;
11453;SDS011;5783;55.174;61.310;2023-05-10T15:29:03;8.40;;;5.70;;
11453;SDS011;5783;55.174;61.310;2023-05-10T15:31:32;8.73;;;6.00;;
11453;SDS011;5783;55.174;61.310;2023-05-10T15:34:01;8.07;;;5.80;;
11453;SDS011;5783;55.174;61.310;2023-05-10T15:36:32;7.77;;;5.53;;
11453;SDS011;5783;55.174;61.310;2023-05-10T15:39:01;6.07;;;5.30;;
11453;SDS011;5783;55.174;61.310;2023-05-10T15:41:30;5.93;;;5.33;;
11453;SDS011;5783;55.174;61.310;2023-05-10T15:43:59;8.20;;;6.13;;
11453;SDS011;5783;55.174;61.310;2023-05-10T15:46:28;6.97;;;5.53;;
11453;SDS011;5783;55.174;61.310;2023-05-10T15:48:58;6.40;;;5.30;;
11453;SDS011;5783;55.174;61.310;2023-05-10T15:51:27;6.83;;;5.33;;
11453;SDS011;5783;55.174;61.310;2023-05-10T15:53:58;7.03;;;5.40;;
11453;SDS011;5783;55.174;61.310;2023-05-10T15:56:47;8.17;;;5.73;;
11453;SDS011;5783;55.174;61.310;2023-05-10T15:59:16;6.47;;;5.80;;
11453;SDS011;5783;55.174;61.310;2023-05-10T16:01:45;7.03;;;5.47;;
11453;SDS011;5783;55.174;61.310;2023-05-10T16:04:15;6.50;;;5.80;;
11453;SDS011;5783;55.174;61.310;2023-05-10T16:06:44;6.30;;;5.43;;
11453;SDS011;5783;55.174;61.310;2023-05-10T16:09:13;7.03;;;5.77;;
11453;SDS011;5783;55.174;61.310;2023-05-10T16:11:44;8.30;;;5.67;;
11453;SDS011;5783;55.174;61.310;2023-05-10T16:14:13;7.73;;;5.43;;
11453;SDS011;5783;55.174;61.310;2023-05-10T16:16:42;7.77;;;6.10;;
11453;SDS011;5783;55.174;61.310;2023-05-10T16:19:12;6.97;;;5.67;;
11453;SDS011;5783;55.174;61.310;2023-05-10T16:21:41;8.07;;;5.93;;
11453;SDS011;5783;55.174;61.310;2023-05-10T16:24:10;7.97;;;6.03;;